Time;durP1;ratioP1;P1;durP2;ratioP2;P2;SDS_P1;SDS_P2;PMS_P1;PMS_P2;Temp;Humidity;BMP_temperature;BMP_pressure;BME280_temperature;BME280_humidity;BME280_pressure;Samples;Min_cycle;Max_cycle;Signal;HPM_P1;HPM_P2
2022/06/28 00:01:50;;;;;;;13.07;8.32;;;;;;;13.56;56.52;101949.19;4981320;28;20060;-80
2022/06/28 00:04:16;;;;;;;11.82;8.20;;;;;;;13.60;56.55;101943.81;4995126;28;20076;-77
2022/06/28 00:06:42;;;;;;;7.22;6.15;;;;;;;13.68;56.41;101951.44;4995272;28;20128;-80
2022/06/28 00:09:07;;;;;;;11.63;6.82;;;;;;;13.68;56.01;101954.06;4993399;28;20595;-79
2022/06/28 00:11:33;;;;;;;8.55;6.38;;;;;;;13.68;56.04;101948.78;4996272;28;20033;-80
2022/06/28 00:13:58;;;;;;;8.77;6.60;;;;;;;13.60;55.87;101950.84;4992600;28;20649;-78
2022/06/28 00:16:24;;;;;;;7.80;6.43;;;;;;;13.52;56.19;101956.34;4996636;28;20033;-76
2022/06/28 00:18:51;;;;;;;6.57;3.97;;;;;;;13.50;56.20;101953.75;4993851;28;20050;-75
2022/06/28 00:21:16;;;;;;;5.32;3.92;;;;;;;13.49;56.09;101951.19;4978266;28;20030;-79
2022/06/28 00:23:42;;;;;;;5.80;5.25;;;;;;;13.45;55.96;101950.44;4993504;28;20460;-78
2022/06/28 00:26:09;;;;;;;7.60;5.47;;;;;;;13.39;56.07;101958.53;4979353;28;20045;-80
2022/06/28 00:28:35;;;;;;;7.07;5.18;;;;;;;13.36;56.53;101958.66;5010483;28;20038;-77
2022/06/28 00:31:03;;;;;;;6.35;5.28;;;;;;;13.44;56.23;101959.22;4992779;28;20456;-76
2022/06/28 00:33:29;;;;;;;8.75;5.80;;;;;;;13.45;56.12;101950.44;4980717;28;20034;-79
2022/06/28 00:35:55;;;;;;;9.90;7.20;;;;;;;13.40;56.07;101960.22;4980177;28;20688;-80
2022/06/28 00:38:21;;;;;;;10.23;5.72;;;;;;;13.33;55.99;101956.97;5018343;28;20129;-79
2022/06/28 00:40:48;;;;;;;7.15;5.50;;;;;;;13.29;56.23;101965.00;4985397;28;20034;-81
2022/06/28 00:43:15;;;;;;;7.75;5.85;;;;;;;13.22;56.05;101968.75;4985216;28;20129;-80
2022/06/28 00:45:45;;;;;;;12.93;5.90;;;;;;;13.13;56.42;101967.28;4983734;28;20106;-77
2022/06/28 00:48:13;;;;;;;7.38;5.70;;;;;;;13.15;56.67;101967.25;5016908;28;20121;-79
2022/06/28 00:50:39;;;;;;;7.80;5.30;;;;;;;13.23;56.32;101978.34;4976956;28;20025;-79
2022/06/28 00:53:11;;;;;;;10.38;4.45;;;;;;;13.32;56.45;101971.00;5012910;28;20811;-80
2022/06/28 00:55:36;;;;;;;7.22;6.28;;;;;;;13.35;56.27;101979.69;4982503;28;20034;-80
2022/06/28 00:58:03;;;;;;;5.55;5.00;;;;;;;13.34;56.23;101978.84;4995624;28;20048;-80
2022/06/28 01:00:31;;;;;;;6.35;5.20;;;;;;;13.31;56.26;101978.94;5000135;28;20631;-76
2022/06/28 01:02:58;;;;;;;7.53;4.95;;;;;;;13.34;56.35;101989.34;4993957;28;20042;-80
2022/06/28 01:05:23;;;;;;;6.15;4.47;;;;;;;13.44;55.90;101984.63;4983687;28;20084;-77
2022/06/28 01:07:49;;;;;;;6.43;4.55;;;;;;;13.48;55.74;101994.97;4993095;28;20721;-77
2022/06/28 01:10:15;;;;;;;6.35;5.18;;;;;;;13.51;55.53;101997.47;4999827;28;20080;-81
2022/06/28 01:12:41;;;;;;;7.93;5.70;;;;;;;13.41;55.17;101995.25;4998446;28;20309;-78
2022/06/28 01:15:07;;;;;;;11.00;5.88;;;;;;;13.33;55.84;102008.63;4998210;28;20065;-78
2022/06/28 01:17:48;;;;;;;7.50;5.80;;;;;;;13.29;55.71;102007.00;4996345;28;20475;-75
2022/06/28 01:20:30;;;;;;;6.80;5.05;;;;;;;13.30;55.89;102008.75;4999699;28;20025;-77
2022/06/28 01:23:16;;;;;;;7.25;4.03;;;;;;;13.31;55.78;102011.28;4997713;28;20471;-79
2022/06/28 01:25:44;;;;;;;9.02;5.00;;;;;;;13.31;55.85;102020.94;4998683;28;20119;-79
2022/06/28 01:28:11;;;;;;;8.15;4.68;;;;;;;13.28;55.65;102021.06;4980741;28;20038;-79
2022/06/28 01:30:37;;;;;;;8.45;4.88;;;;;;;13.34;55.70;102026.09;4983338;28;20026;-78
2022/06/28 01:33:17;;;;;;;6.88;5.00;;;;;;;13.19;55.95;102026.63;4996408;28;20112;-79
2022/06/28 01:35:43;;;;;;;9.00;5.95;;;;;;;12.83;56.82;102025.09;4996017;28;20033;-76
2022/06/28 01:38:10;;;;;;;6.25;5.10;;;;;;;12.90;56.51;102017.91;4996258;28;20784;-80
2022/06/28 01:40:36;;;;;;;11.98;6.22;;;;;;;12.94;56.16;102022.16;4980987;28;20219;-77
2022/06/28 01:43:02;;;;;;;10.93;6.30;;;;;;;12.77;56.35;102035.78;4991311;28;20512;-77
2022/06/28 01:45:32;;;;;;;8.80;5.70;;;;;;;12.74;56.50;102032.41;4998651;28;20772;-78
2022/06/28 01:47:57;;;;;;;10.80;6.03;;;;;;;12.65;56.41;102037.00;4977912;28;20049;-80
2022/06/28 01:50:28;;;;;;;11.90;6.05;;;;;;;12.64;56.72;102039.66;4996483;28;20033;-78
2022/06/28 01:52:54;;;;;;;9.30;5.88;;;;;;;12.55;56.80;102038.16;4994109;28;20782;-78
2022/06/28 01:55:43;;;;;;;6.70;5.00;;;;;;;12.34;57.01;102044.06;4983620;28;20555;-79
2022/06/28 01:58:23;;;;;;;7.35;5.32;;;;;;;12.27;56.96;102040.75;4998921;28;20128;-78
2022/06/28 02:00:49;;;;;;;8.90;6.75;;;;;;;12.06;57.51;102029.09;4996933;28;20077;-80
2022/06/28 02:03:14;;;;;;;8.75;6.22;;;;;;;12.08;57.64;102027.28;4994973;28;20046;-80
2022/06/28 02:06:18;;;;;;;16.00;7.50;;;;;;;11.94;57.88;102022.44;4992621;28;20559;-78
2022/06/28 02:08:47;;;;;;;7.90;6.03;;;;;;;11.98;57.68;102029.31;4993344;28;20038;-79
2022/06/28 02:11:18;;;;;;;8.95;7.03;;;;;;;12.15;56.64;102028.84;5011731;28;20030;-75
2022/06/28 02:13:47;;;;;;;8.32;6.72;;;;;;;12.03;56.88;102037.06;4994119;28;20508;-78
2022/06/28 02:16:13;;;;;;;6.95;5.70;;;;;;;11.94;56.87;102034.69;4995830;28;20068;-79
2022/06/28 02:18:39;;;;;;;9.10;6.50;;;;;;;11.93;56.79;102030.34;4997604;28;20110;-81
2022/06/28 02:21:06;;;;;;;11.73;6.55;;;;;;;11.87;57.01;102032.22;4980145;28;20124;-78
2022/06/28 02:23:32;;;;;;;9.73;6.10;;;;;;;11.85;57.00;102026.16;4993771;28;20034;-79
2022/06/28 02:25:58;;;;;;;8.70;6.20;;;;;;;11.83;56.83;102025.34;4995611;28;20404;-80
2022/06/28 02:28:24;;;;;;;12.38;6.45;;;;;;;11.74;56.72;102019.47;4995307;28;20046;-82
2022/06/28 02:30:51;;;;;;;8.27;5.85;;;;;;;11.68;56.94;102018.72;4993535;28;20504;-76
2022/06/28 02:33:17;;;;;;;11.77;7.32;;;;;;;11.60;57.31;102022.47;4994164;28;20038;-78
2022/06/28 02:41:11;;;;;;;7.97;6.63;;;;;;;11.55;57.21;102021.69;5013539;28;20029;-80
2022/06/28 02:43:37;;;;;;;10.25;7.85;;;;;;;11.51;57.82;102026.19;4994286;28;20042;-81
2022/06/28 02:46:02;;;;;;;8.25;6.15;;;;;;;11.57;57.49;102022.53;4990713;28;20473;-76
2022/06/28 02:48:28;;;;;;;18.80;8.90;;;;;;;11.56;57.38;102026.06;4997626;28;20136;-80
2022/06/28 02:50:53;;;;;;;10.15;6.45;;;;;;;11.60;57.38;102023.31;5010059;28;20030;-78
2022/06/28 02:53:19;;;;;;;9.05;7.22;;;;;;;11.61;57.37;102024.16;4995444;28;20045;-77
2022/06/28 02:55:44;;;;;;;18.00;9.68;;;;;;;11.25;58.69;102027.69;4998208;28;20451;-79
2022/06/28 02:58:10;;;;;;;8.18;6.68;;;;;;;11.57;57.63;102033.00;4980293;28;20291;-79
2022/06/28 03:00:35;;;;;;;14.40;7.82;;;;;;;11.52;57.80;102032.28;4997464;28;20034;-78
2022/06/28 03:03:01;;;;;;;12.63;8.63;;;;;;;11.48;57.94;102039.31;4981068;28;20042;-79
2022/06/28 03:05:27;;;;;;;15.07;9.57;;;;;;;11.54;57.86;102038.31;4995158;28;20116;-78
2022/06/28 03:07:52;;;;;;;9.07;7.40;;;;;;;11.59;57.50;102041.69;4978964;28;20270;-79
2022/06/28 03:10:20;;;;;;;12.07;8.80;;;;;;;11.56;57.59;102047.84;4982338;28;20723;-78
2022/06/28 03:12:46;;;;;;;11.82;9.07;;;;;;;11.59;57.65;102042.53;4993015;28;20737;-78
2022/06/28 03:15:13;;;;;;;10.02;7.63;;;;;;;11.63;57.75;102043.31;4995475;28;20041;-78
2022/06/28 03:17:42;;;;;;;11.55;9.10;;;;;;;11.66;57.60;102045.84;4993518;28;20725;-78
2022/06/28 03:20:08;;;;;;;12.88;8.13;;;;;;;11.68;57.49;102052.75;4989149;28;20132;-80
2022/06/28 03:22:33;;;;;;;15.38;9.32;;;;;;;11.66;57.34;102058.94;4994337;28;20050;-80
2022/06/28 03:24:59;;;;;;;10.50;7.78;;;;;;;11.67;57.22;102053.69;4994448;28;20465;-78
2022/06/28 03:27:25;;;;;;;11.10;8.60;;;;;;;11.70;57.60;102055.34;4993330;28;20077;-78
2022/06/28 03:29:51;;;;;;;11.88;8.98;;;;;;;11.63;57.41;102065.13;4994149;28;20093;-80
2022/06/28 03:32:22;;;;;;;;;;;;;;;11.40;57.80;102057.00;4996017;28;20046;-77
2022/06/28 03:34:48;;;;;;;15.38;9.45;;;;;;;11.62;57.42;102054.69;4994842;28;20426;-78
2022/06/28 03:37:17;;;;;;;16.30;10.32;;;;;;;11.39;57.73;102060.50;5000797;28;20068;-77
2022/06/28 03:39:46;;;;;;;11.80;9.07;;;;;;;11.61;57.85;102052.97;4980746;28;20141;-78
2022/06/28 03:42:12;;;;;;;14.13;9.68;;;;;;;11.63;57.52;102057.28;4976401;28;20303;-78
2022/06/28 03:44:41;;;;;;;13.88;9.57;;;;;;;11.68;57.14;102057.16;4993919;28;20041;-76
2022/06/28 03:47:07;;;;;;;12.52;8.77;;;;;;;11.71;57.43;102062.31;4993884;28;20038;-77
2022/06/28 03:49:38;;;;;;;15.80;9.50;;;;;;;11.79;57.35;102056.91;4995666;28;20533;-77
2022/06/28 03:52:16;;;;;;;29.45;10.10;;;;;;;11.82;57.10;102055.06;5011625;28;20046;-79
2022/06/28 03:55:00;;;;;;;36.85;9.88;;;;;;;11.87;56.88;102052.34;5006106;28;20045;-79
2022/06/28 03:57:34;;;;;;;29.23;10.65;;;;;;;11.98;56.79;102058.16;5010240;28;20041;-78
2022/06/28 04:00:01;;;;;;;10.55;7.88;;;;;;;11.97;57.37;102058.19;4975760;28;20041;-79
2022/06/28 04:02:28;;;;;;;21.60;9.05;;;;;;;11.88;57.05;102059.28;4994100;28;20037;-80
2022/06/28 04:04:53;;;;;;;65.28;10.38;;;;;;;11.67;57.35;102066.78;4978770;28;20044;-76
2022/06/28 04:07:19;;;;;;;18.20;9.73;;;;;;;11.87;57.45;102060.19;4994776;28;20568;-78
2022/06/28 04:09:46;;;;;;;10.63;8.68;;;;;;;12.09;57.26;102063.09;4992304;28;20073;-77
2022/06/28 04:12:12;;;;;;;22.00;9.73;;;;;;;12.18;56.83;102073.31;4980694;28;20069;-77
2022/06/28 04:14:40;;;;;;;13.38;9.35;;;;;;;12.27;56.69;102065.19;5001755;28;20049;-78
2022/06/28 04:17:05;;;;;;;41.13;10.63;;;;;;;11.68;57.54;102071.09;5011389;28;20038;-78
2022/06/28 04:20:07;;;;;;;11.80;9.25;;;;;;;12.31;56.75;102067.72;4973608;28;20125;-79
2022/06/28 04:22:44;;;;;;;13.10;8.95;;;;;;;12.60;56.45;102067.75;4995731;28;20053;-77
2022/06/28 04:25:10;;;;;;;12.23;9.10;;;;;;;12.70;55.83;102076.22;4997848;28;20668;-80
2022/06/28 04:27:42;;;;;;;12.10;8.85;;;;;;;12.56;55.86;102079.25;4982739;28;20045;-78
2022/06/28 04:30:08;;;;;;;8.98;7.82;;;;;;;12.78;55.49;102083.84;4999791;28;20037;-79
2022/06/28 04:32:56;;;;;;;14.60;8.38;;;;;;;12.84;54.88;102088.94;4996658;28;20096;-78
2022/06/28 04:35:25;;;;;;;9.20;7.40;;;;;;;12.94;55.52;102093.00;5000585;28;20055;-78
2022/06/28 04:37:52;;;;;;;11.45;7.72;;;;;;;12.84;54.84;102095.03;5011723;28;20048;-76
2022/06/28 04:40:50;;;;;;;8.43;6.82;;;;;;;12.87;54.69;102099.31;4997702;28;20503;-77
2022/06/28 04:43:47;;;;;;;10.63;7.22;;;;;;;12.78;54.01;102104.84;4976094;28;20757;-76
2022/06/28 04:46:20;;;;;;;9.50;7.88;;;;;;;12.73;54.30;102098.88;5001447;28;20041;-81
2022/06/28 04:48:47;;;;;;;8.40;7.60;;;;;;;12.77;53.76;102097.91;5003975;28;20070;-80
2022/06/28 04:51:13;;;;;;;10.27;6.80;;;;;;;12.73;54.64;102110.22;5001777;28;20045;-79
2022/06/28 04:53:44;;;;;;;10.25;7.50;;;;;;;12.87;54.06;102104.56;5004690;28;20664;-79
2022/06/28 04:56:11;;;;;;;8.75;7.38;;;;;;;12.90;54.01;102104.50;5005603;28;20284;-78
2022/06/28 04:58:41;;;;;;;9.80;7.32;;;;;;;12.96;54.16;102108.69;4985283;28;20050;-79
2022/06/28 05:01:07;;;;;;;10.68;7.65;;;;;;;12.89;54.15;102105.38;5002392;28;20811;-78
2022/06/28 05:03:33;;;;;;;8.98;7.20;;;;;;;13.07;54.22;102117.97;5000547;28;20052;-80
2022/06/28 05:06:01;;;;;;;12.15;9.60;;;;;;;13.50;53.97;102116.59;5012798;28;20105;-80
2022/06/28 05:08:28;;;;;;;9.30;7.60;;;;;;;14.14;52.45;102120.59;4999172;28;20065;-77
2022/06/28 05:11:02;;;;;;;10.23;8.52;;;;;;;15.48;48.90;102115.56;4998178;28;20444;-80
2022/06/28 05:13:53;;;;;;;9.30;6.40;;;;;;;16.83;46.05;102115.81;4984101;28;20152;-78
2022/06/28 05:16:20;;;;;;;8.35;6.43;;;;;;;17.86;42.84;102124.00;4999324;28;20057;-76
2022/06/28 05:18:45;;;;;;;6.93;6.22;;;;;;;19.14;40.22;102122.47;4995503;28;20133;-79
2022/06/28 05:21:14;;;;;;;6.88;5.85;;;;;;;20.52;37.19;102122.25;4999678;28;20038;-80
2022/06/28 05:23:42;;;;;;;8.57;5.63;;;;;;;21.14;35.70;102124.50;4995849;28;20121;-76
2022/06/28 05:26:40;;;;;;;5.10;4.60;;;;;;;21.12;35.69;102118.44;5004033;28;20045;-78
2022/06/28 05:29:27;;;;;;;6.78;5.07;;;;;;;22.09;34.00;102119.09;4985459;28;20585;-78
2022/06/28 05:31:52;;;;;;;8.13;5.53;;;;;;;22.10;33.32;102113.69;4997361;28;20057;-80
2022/06/28 05:34:20;;;;;;;9.10;4.50;;;;;;;23.16;32.50;102107.88;4996499;28;20030;-76
2022/06/28 05:36:45;;;;;;;5.85;3.35;;;;;;;23.96;30.37;102113.34;4994509;28;20048;-79
2022/06/28 05:39:13;;;;;;;5.22;4.72;;;;;;;24.06;29.01;102108.16;4998340;28;20069;-78
2022/06/28 05:41:41;;;;;;;5.60;4.15;;;;;;;24.14;28.84;102112.88;5000702;28;20507;-78
2022/06/28 05:44:09;;;;;;;8.43;4.93;;;;;;;23.50;30.53;102105.34;4997558;28;20524;-78
2022/06/28 05:46:35;;;;;;;4.95;3.85;;;;;;;24.07;29.32;102109.84;5000412;28;20791;-78
2022/06/28 05:49:01;;;;;;;13.18;4.95;;;;;;;24.67;28.58;102106.94;4996986;28;20048;-79
2022/06/28 05:51:28;;;;;;;5.05;3.67;;;;;;;25.44;29.06;102115.69;4998550;28;20459;-79
2022/06/28 05:53:54;;;;;;;5.20;4.07;;;;;;;25.71;26.80;102106.31;4980114;28;20038;-79
2022/06/28 05:56:20;;;;;;;5.90;3.30;;;;;;;25.86;27.71;102106.78;5000868;28;20544;-78
2022/06/28 05:58:46;;;;;;;5.70;3.58;;;;;;;26.41;26.46;102118.06;4999158;28;20232;-78
2022/06/28 06:01:12;;;;;;;3.50;3.20;;;;;;;26.67;26.15;102121.13;4981285;28;20025;-79
2022/06/28 06:03:38;;;;;;;5.65;3.70;;;;;;;26.50;25.54;102119.91;4996560;28;20049;-80
2022/06/28 06:06:04;;;;;;;4.78;2.70;;;;;;;27.28;25.55;102124.59;4998457;28;20053;-79
2022/06/28 06:08:30;;;;;;;5.50;3.22;;;;;;;23.67;29.16;102120.06;4994803;28;20049;-77
2022/06/28 06:10:55;;;;;;;4.18;3.22;;;;;;;24.30;29.29;102124.06;4995695;28;20216;-77
2022/06/28 06:13:21;;;;;;;7.70;3.80;;;;;;;25.41;27.68;102118.59;5012154;28;20037;-77
2022/06/28 06:15:47;;;;;;;4.63;2.88;;;;;;;26.18;28.75;102122.78;4977700;28;20659;-80
2022/06/28 06:18:12;;;;;;;4.45;1.95;;;;;;;27.67;25.90;102121.88;4977690;28;20057;-78
2022/06/28 06:20:38;;;;;;;5.30;2.50;;;;;;;27.74;24.99;102120.28;4981311;28;20117;-79
2022/06/28 06:23:04;;;;;;;9.88;3.40;;;;;;;27.66;23.79;102117.50;4996137;28;20042;-78
2022/06/28 06:25:55;;;;;;;6.75;2.85;;;;;;;27.62;26.97;102122.31;5003687;28;20397;-78
2022/06/28 06:28:21;;;;;;;6.82;3.05;;;;;;;28.73;22.51;102120.63;4995624;28;20562;-79
2022/06/28 06:30:46;;;;;;;5.88;2.05;;;;;;;28.90;22.22;102123.47;4998222;28;20048;-78
2022/06/28 06:33:18;;;;;;;5.28;2.20;;;;;;;28.10;22.98;102123.19;4983488;28;20038;-78
2022/06/28 06:35:58;;;;;;;5.50;1.70;;;;;;;28.91;23.62;102119.78;4997243;28;20600;-79
2022/06/28 06:38:24;;;;;;;4.72;1.73;;;;;;;29.37;22.68;102123.22;4994710;28;20046;-79
2022/06/28 06:40:51;;;;;;;2.88;1.20;;;;;;;30.53;21.71;102122.88;4994913;28;20081;-79
2022/06/28 06:43:17;;;;;;;4.65;2.22;;;;;;;28.60;22.59;102125.47;4980123;28;20045;-78
2022/06/28 06:45:42;;;;;;;4.78;1.80;;;;;;;28.31;23.88;102126.50;4995413;28;20427;-78
2022/06/28 06:48:08;;;;;;;6.70;1.58;;;;;;;26.49;26.76;102126.28;4995965;28;20109;-78
2022/06/28 06:50:35;;;;;;;2.53;1.35;;;;;;;27.86;24.80;102127.22;4998284;28;20096;-77
2022/06/28 06:53:02;;;;;;;8.90;1.00;;;;;;;28.96;23.85;102136.31;4993881;28;20613;-78
2022/06/28 06:55:29;;;;;;;5.25;1.98;;;;;;;29.13;22.78;102124.72;4983932;28;20025;-79
2022/06/28 06:57:54;;;;;;;4.35;1.45;;;;;;;29.42;21.61;102122.78;4995209;28;20425;-80
2022/06/28 07:00:20;;;;;;;5.00;1.50;;;;;;;27.39;24.13;102121.75;4998138;28;20121;-79
2022/06/28 07:02:46;;;;;;;2.70;1.02;;;;;;;27.14;24.26;102116.97;4982019;28;20045;-76
2022/06/28 07:05:11;;;;;;;4.95;1.50;;;;;;;27.32;24.39;102123.31;4996139;28;20476;-77
2022/06/28 07:07:39;;;;;;;1.90;1.33;;;;;;;27.90;23.33;102125.94;4980023;28;20100;-77
2022/06/28 07:10:05;;;;;;;3.10;1.25;;;;;;;27.07;24.29;102120.19;4996786;28;20396;-77
2022/06/28 07:12:32;;;;;;;3.13;1.38;;;;;;;25.44;26.57;102128.19;4997272;28;20372;-78
2022/06/28 07:14:57;;;;;;;4.22;1.30;;;;;;;26.88;25.13;102120.16;4995083;28;20123;-79
2022/06/28 07:17:26;;;;;;;3.33;1.00;;;;;;;27.60;23.65;102120.72;4998700;28;20049;-79
2022/06/28 07:19:51;;;;;;;2.03;0.70;;;;;;;26.43;25.30;102120.63;4993171;28;20446;-79
2022/06/28 07:22:17;;;;;;;4.38;1.05;;;;;;;24.48;27.67;102118.25;4995899;28;20049;-77
2022/06/28 07:24:44;;;;;;;2.33;0.43;;;;;;;24.30;28.26;102120.53;4994672;28;20042;-79
2022/06/28 07:27:10;;;;;;;4.10;0.50;;;;;;;24.38;27.62;102123.47;4996268;28;20045;-79
2022/06/28 07:29:36;;;;;;;3.35;0.40;;;;;;;25.42;27.55;102117.63;4981009;28;20038;-78
2022/06/28 07:32:02;;;;;;;4.50;0.40;;;;;;;27.15;24.27;102114.13;5007266;28;20117;-77
2022/06/28 07:34:28;;;;;;;1.98;0.30;;;;;;;26.96;24.34;102123.00;4979717;28;20551;-81
2022/06/28 07:36:53;;;;;;;4.22;0.65;;;;;;;27.83;23.53;102119.44;4980279;28;20034;-79
2022/06/28 07:39:19;;;;;;;1.65;0.63;;;;;;;29.39;21.67;102125.78;4994712;28;20037;-78
2022/06/28 07:42:10;;;;;;;1.80;0.30;;;;;;;29.72;20.40;102126.88;4990996;28;20046;-79
2022/06/28 07:44:55;;;;;;;7.70;0.50;;;;;;;29.63;21.24;102125.13;4993799;28;20053;-77
2022/06/28 07:47:21;;;;;;;2.95;0.60;;;;;;;30.56;20.05;102130.69;4991209;28;20077;-80
2022/06/28 07:52:34;;;;;;;1.40;0.30;;;;;;;31.14;19.74;102124.41;4995368;28;20038;-79
2022/06/28 07:55:06;;;;;;;4.90;0.55;;;;;;;29.61;20.28;102119.91;4977089;28;20091;-80
2022/06/28 07:57:43;;;;;;;0.88;0.40;;;;;;;30.25;20.09;102116.91;4997697;28;20038;-78
2022/06/28 08:00:11;;;;;;;1.20;0.22;;;;;;;30.50;18.68;102128.63;4995826;28;20091;-81
2022/06/28 08:02:50;;;;;;;1.17;0.40;;;;;;;29.07;19.60;102129.84;4991941;28;20472;-79
2022/06/28 08:05:16;;;;;;;3.35;0.50;;;;;;;30.91;19.15;102124.19;4999204;28;20483;-80
2022/06/28 08:07:42;;;;;;;5.43;0.30;;;;;;;30.92;19.15;102119.63;4997074;28;20099;-79
2022/06/28 08:10:09;;;;;;;2.95;0.30;;;;;;;28.45;21.27;102127.81;4997544;28;20061;-80
2022/06/28 08:12:36;;;;;;;4.35;0.20;;;;;;;30.07;19.72;102122.38;4996090;28;20057;-78
2022/06/28 08:15:03;;;;;;;4.45;0.30;;;;;;;28.77;20.73;102121.16;4981225;28;20034;-81
2022/06/28 08:17:29;;;;;;;8.23;0.43;;;;;;;29.53;20.68;102119.84;4997319;28;20034;-79
2022/06/28 08:19:56;;;;;;;3.03;0.40;;;;;;;27.33;22.68;102125.00;4998706;28;20038;-82
2022/06/28 08:22:22;;;;;;;2.58;0.30;;;;;;;28.40;20.42;102123.91;4983444;28;20068;-80
2022/06/28 08:24:48;;;;;;;5.28;1.75;;;;;;;28.67;20.44;102121.22;4996948;28;20167;-80
2022/06/28 08:27:14;;;;;;;3.90;0.35;;;;;;;29.02;20.50;102127.63;4981050;28;20041;-78
2022/06/28 08:29:45;;;;;;;4.82;0.38;;;;;;;27.45;21.98;102129.25;5012515;28;20517;-78
2022/06/28 08:32:11;;;;;;;4.20;0.30;;;;;;;25.73;24.20;102139.13;4994143;28;20042;-78
2022/06/28 08:34:37;;;;;;;1.02;0.40;;;;;;;27.31;22.58;102135.03;4997504;28;20076;-78
2022/06/28 08:37:04;;;;;;;3.72;0.30;;;;;;;27.09;22.06;102136.13;5011059;28;20048;-79
2022/06/28 08:39:29;;;;;;;2.45;0.20;;;;;;;26.57;22.89;102139.00;5010320;28;20029;-77
2022/06/28 08:41:58;;;;;;;1.45;0.30;;;;;;;25.73;23.95;102136.44;4991491;28;20065;-79
2022/06/28 08:44:24;;;;;;;1.27;0.20;;;;;;;26.43;22.54;102131.34;4996886;28;20495;-79
2022/06/28 08:46:52;;;;;;;2.70;0.30;;;;;;;24.30;25.01;102132.06;4997997;28;20133;-77
2022/06/28 08:49:27;;;;;;;2.35;0.35;;;;;;;27.59;23.00;102122.59;4997885;28;20120;-77
2022/06/28 08:51:55;;;;;;;2.20;0.10;;;;;;;28.90;20.71;102129.72;4992488;28;20038;-79
2022/06/28 08:54:22;;;;;;;2.88;0.40;;;;;;;29.98;19.39;102121.47;4994035;28;20906;-77
2022/06/28 08:56:49;;;;;;;2.17;0.20;;;;;;;29.69;19.54;102122.66;5007922;28;20177;-79
2022/06/28 08:59:15;;;;;;;4.43;0.20;;;;;;;26.38;23.07;102118.34;5001196;28;20113;-81
2022/06/28 09:01:41;;;;;;;6.50;0.30;;;;;;;26.70;22.55;102120.00;5014693;28;20120;-78
2022/06/28 09:04:09;;;;;;;1.75;0.30;;;;;;;27.03;22.26;102118.78;4999843;28;20042;-79
2022/06/28 09:06:35;;;;;;;0.52;0.10;;;;;;;27.76;22.18;102121.00;4998613;28;20081;-78
2022/06/28 09:09:01;;;;;;;1.67;0.20;;;;;;;27.76;20.82;102120.16;4997581;28;20567;-77
2022/06/28 09:11:44;;;;;;;4.63;0.60;;;;;;;28.33;21.00;102111.06;5001525;28;20034;-78
2022/06/28 09:14:30;;;;;;;0.57;0.10;;;;;;;28.25;21.12;102119.00;4996518;28;20161;-78
2022/06/28 09:16:58;;;;;;;4.90;0.30;;;;;;;27.35;21.83;102117.66;4994554;28;20448;-79
2022/06/28 09:19:38;;;;;;;0.90;0.17;;;;;;;27.05;22.35;102116.81;5001877;28;20038;-79
2022/06/28 09:22:04;;;;;;;3.15;0.35;;;;;;;28.19;20.75;102116.94;4979910;28;20738;-78
2022/06/28 09:24:30;;;;;;;1.58;0.20;;;;;;;27.75;20.27;102113.94;4984066;28;20071;-77
2022/06/28 09:27:04;;;;;;;0.88;0.20;;;;;;;27.09;22.16;102117.34;4982720;28;20034;-77
2022/06/28 09:29:30;;;;;;;6.43;0.20;;;;;;;28.47;21.49;102117.75;4998794;28;20037;-78
2022/06/28 09:31:55;;;;;;;5.93;0.20;;;;;;;28.15;21.68;102110.16;4998289;28;20034;-77
2022/06/28 09:34:21;;;;;;;2.22;0.20;;;;;;;28.43;21.90;102111.00;5000035;28;20084;-78
2022/06/28 09:36:56;;;;;;;5.10;0.52;;;;;;;28.65;20.55;102112.44;4998315;28;20069;-78
2022/06/28 09:39:27;;;;;;;3.10;0.20;;;;;;;27.71;19.53;102109.84;5000776;28;20066;-79
2022/06/28 09:41:54;;;;;;;3.08;0.10;;;;;;;26.78;21.26;102108.56;4996396;28;20029;-79
2022/06/28 09:44:24;;;;;;;1.08;0.10;;;;;;;26.34;21.80;102094.63;5001207;28;20129;-78
2022/06/28 09:46:52;;;;;;;1.63;0.10;;;;;;;26.93;23.52;102100.97;4997811;28;20065;-77
2022/06/28 09:49:18;;;;;;;1.63;0.10;;;;;;;26.72;22.80;102104.63;5014334;28;20117;-78
2022/06/28 09:51:45;;;;;;;1.58;0.10;;;;;;;25.74;21.69;102103.34;4998681;28;20037;-77
2022/06/28 09:54:11;;;;;;;6.05;0.20;;;;;;;24.55;24.40;102104.28;5004587;28;20038;-78
2022/06/28 09:56:40;;;;;;;0.77;0.10;;;;;;;25.23;24.88;102106.78;4986910;28;20041;-77
2022/06/28 09:59:07;;;;;;;1.88;0.10;;;;;;;24.65;24.57;102107.88;4999885;28;20128;-79
2022/06/28 10:01:34;;;;;;;4.78;0.20;;;;;;;25.84;24.23;102101.59;5001608;28;20037;-78
2022/06/28 10:04:00;;;;;;;4.00;0.47;;;;;;;26.29;22.33;102098.56;4996422;28;20701;-79
2022/06/28 10:06:26;;;;;;;2.63;0.13;;;;;;;25.80;22.68;102105.50;5001683;28;20602;-78
2022/06/28 10:08:52;;;;;;;2.78;0.32;;;;;;;25.04;23.83;102102.13;4987670;28;20125;-80
2022/06/28 10:11:19;;;;;;;4.70;0.20;;;;;;;25.67;23.51;102103.03;5012816;28;20065;-78
2022/06/28 10:16:46;;;;;;;2.75;0.10;;;;;;;25.05;23.48;102101.97;5013691;28;20095;-80
2022/06/28 10:19:18;;;;;;;4.87;0.10;;;;;;;22.95;24.90;102105.84;5000049;28;20053;-79
2022/06/28 10:22:08;;;;;;;2.08;0.30;;;;;;;22.94;26.31;102097.94;4998269;28;20044;-78
2022/06/28 10:24:55;;;;;;;2.90;0.30;;;;;;;22.55;26.87;102103.38;4983007;28;20081;-80
2022/06/28 10:27:22;;;;;;;1.23;0.15;;;;;;;21.54;28.05;102105.94;4999735;28;20046;-79
2022/06/28 10:30:08;;;;;;;4.38;0.32;;;;;;;22.34;27.80;102099.59;5015570;28;20042;-76
2022/06/28 10:32:46;;;;;;;1.38;0.10;;;;;;;24.11;26.40;102103.31;4985700;28;20045;-76
2022/06/28 10:35:32;;;;;;;2.55;0.15;;;;;;;24.03;24.87;102113.72;5012485;28;20126;-76
2022/06/28 10:38:10;;;;;;;1.70;0.20;;;;;;;23.90;23.85;102103.19;4981865;28;20288;-80
2022/06/28 10:40:49;;;;;;;1.67;0.40;;;;;;;24.76;24.28;102099.00;4983145;28;20041;-78
2022/06/28 10:43:29;;;;;;;1.17;0.20;;;;;;;25.26;22.80;102096.69;4969138;28;20041;-78
2022/06/28 10:46:00;;;;;;;3.03;0.20;;;;;;;25.59;22.60;102094.81;4994423;28;20107;-78
2022/06/28 10:48:28;;;;;;;2.58;0.10;;;;;;;25.83;22.64;102097.19;4996908;28;21008;-78
2022/06/28 10:50:59;;;;;;;3.42;0.32;;;;;;;26.03;22.78;102091.94;4995947;28;20040;-78
2022/06/28 10:53:32;;;;;;;1.30;0.10;;;;;;;25.84;21.07;102093.56;4996895;28;20115;-79
2022/06/28 10:56:12;;;;;;;5.47;0.15;;;;;;;26.04;21.67;102082.91;5009493;28;20042;-79
2022/06/28 10:59:12;;;;;;;3.10;0.17;;;;;;;26.50;21.55;102089.59;4995506;28;20050;-78
2022/06/28 11:01:43;;;;;;;3.92;0.30;;;;;;;25.77;21.70;102086.19;4968931;28;20042;-77
2022/06/28 11:04:18;;;;;;;3.22;0.20;;;;;;;26.42;22.44;102082.22;4997123;28;20837;-78
2022/06/28 11:07:21;;;;;;;0.80;0.10;;;;;;;24.00;25.63;102084.59;4983103;28;20160;-79
2022/06/28 11:10:04;;;;;;;4.45;0.50;;;;;;;25.10;24.48;102085.53;4992890;28;20046;-76
2022/06/28 11:12:41;;;;;;;3.03;0.30;;;;;;;24.81;23.82;102090.59;5010695;28;20053;-79
2022/06/28 11:15:07;;;;;;;0.70;0.30;;;;;;;25.13;22.85;102087.97;4980919;28;20041;-79
2022/06/28 11:17:44;;;;;;;1.20;0.10;;;;;;;25.65;22.72;102085.41;4998991;28;20120;-78
2022/06/28 11:20:19;;;;;;;4.50;0.10;;;;;;;24.71;22.60;102087.84;4997835;28;21333;-79
2022/06/28 11:22:50;;;;;;;2.88;0.20;;;;;;;24.13;25.02;102089.84;5013042;28;20121;-78
2022/06/28 11:25:19;;;;;;;3.03;0.68;;;;;;;23.77;24.85;102084.56;4997705;28;20157;-80
2022/06/28 11:27:45;;;;;;;3.92;0.10;;;;;;;23.47;26.03;102081.56;4996977;28;20073;-80
2022/06/28 11:30:12;;;;;;;4.22;0.10;;;;;;;22.96;26.66;102082.69;4979265;28;20096;-77
2022/06/28 11:32:40;;;;;;;0.98;0.10;;;;;;;22.79;27.78;102083.94;4994395;28;20046;-75
2022/06/28 11:35:15;;;;;;;2.63;0.20;;;;;;;23.23;26.51;102085.13;4990922;28;20034;-78
2022/06/28 11:37:51;;;;;;;5.65;0.57;;;;;;;24.74;25.12;102089.41;4991788;28;20353;-77
2022/06/28 11:40:19;;;;;;;4.00;0.30;;;;;;;24.71;23.67;102087.00;4990893;28;20040;-81
2022/06/28 11:42:47;;;;;;;4.60;0.30;;;;;;;25.65;22.98;102082.72;4991488;28;20045;-80
2022/06/28 11:45:14;;;;;;;2.30;0.20;;;;;;;25.59;21.42;102068.03;4995409;28;20119;-77
2022/06/28 11:47:45;;;;;;;1.35;0.20;;;;;;;26.28;22.14;102071.91;4986605;28;20136;-79